createdAt,value
2022-12-25T00:01:49.479Z,2.07
2022-12-25T00:04:17.271Z,1.77
2022-12-25T00:06:45.099Z,1.97
2022-12-25T00:09:14.288Z,2.17
2022-12-25T00:11:42.190Z,2.10
2022-12-25T00:14:10.094Z,1.83
2022-12-25T00:16:37.963Z,2.10
2022-12-25T00:19:06.071Z,1.50
2022-12-25T00:21:33.982Z,1.70
2022-12-25T00:24:01.793Z,1.60
2022-12-25T00:26:30.978Z,1.47
2022-12-25T00:28:59.657Z,1.90
2022-12-25T00:31:27.926Z,1.60
2022-12-25T00:33:56.102Z,1.50
2022-12-25T00:36:24.572Z,1.60
2022-12-25T00:38:52.395Z,1.40
2022-12-25T00:41:42.871Z,1.73
2022-12-25T00:44:13.729Z,1.97
2022-12-25T00:46:42.168Z,1.77
2022-12-25T00:49:10.896Z,1.60
2022-12-25T00:51:38.963Z,1.40
2022-12-25T00:54:06.838Z,1.90
2022-12-25T00:56:35.278Z,1.57
2022-12-25T00:59:03.197Z,1.50
2022-12-25T01:01:32.853Z,1.57
2022-12-25T01:04:01.044Z,1.37
2022-12-25T01:06:29.651Z,1.20
2022-12-25T01:09:14.510Z,1.57
2022-12-25T01:11:42.324Z,1.60
2022-12-25T01:14:10.236Z,1.53
2022-12-25T01:16:39.758Z,1.80
2022-12-25T01:19:07.818Z,1.67
2022-12-25T01:21:35.621Z,1.70
2022-12-25T01:24:03.479Z,1.20
2022-12-25T01:26:31.283Z,1.57
2022-12-25T01:28:59.067Z,1.40
2022-12-25T01:31:27.003Z,1.07
2022-12-25T01:33:56.243Z,1.17
2022-12-25T01:36:26.006Z,1.40
2022-12-25T01:38:54.729Z,1.70
2022-12-25T01:41:25.035Z,1.30
2022-12-25T01:44:01.927Z,1.17
2022-12-25T01:46:30.395Z,1.30
2022-12-25T01:49:03.302Z,1.47
2022-12-25T01:51:35.875Z,1.10
2022-12-25T01:54:06.716Z,1.10
2022-12-25T01:56:35.838Z,1.20
2022-12-25T01:59:05.450Z,1.20
2022-12-25T02:01:33.425Z,0.83
2022-12-25T02:04:10.025Z,1.10
2022-12-25T02:06:37.772Z,1.13
2022-12-25T02:09:05.603Z,1.03
2022-12-25T02:11:50.962Z,1.00
2022-12-25T02:14:18.902Z,1.17
2022-12-25T02:16:57.737Z,1.00
2022-12-25T02:19:41.802Z,1.00
2022-12-25T02:22:17.166Z,1.40
2022-12-25T02:24:59.409Z,0.97
2022-12-25T02:28:03.175Z,1.07
2022-12-25T02:30:37.778Z,1.03
2022-12-25T02:33:29.541Z,1.10
2022-12-25T02:35:58.715Z,1.00
2022-12-25T02:38:32.380Z,0.93
2022-12-25T02:41:05.555Z,1.13
2022-12-25T02:43:55.240Z,1.00
2022-12-25T02:46:43.428Z,0.90
2022-12-25T02:49:31.355Z,1.13
2022-12-25T02:52:21.924Z,1.03
2022-12-25T02:55:12.577Z,1.00
2022-12-25T02:58:01.925Z,0.80
2022-12-25T03:00:48.474Z,1.13
2022-12-25T03:03:36.922Z,0.93
2022-12-25T03:06:23.028Z,0.90
2022-12-25T03:08:54.609Z,0.97
2022-12-25T03:11:33.440Z,1.10
2022-12-25T03:14:18.019Z,0.80
2022-12-25T03:16:53.761Z,1.10
2022-12-25T03:19:44.202Z,1.17
2022-12-25T03:22:35.215Z,0.80
2022-12-25T03:25:21.250Z,0.97
2022-12-25T03:27:51.872Z,1.10
2022-12-25T03:30:37.753Z,1.20
2022-12-25T03:33:43.280Z,0.90
2022-12-25T03:36:09.341Z,0.80
2022-12-25T03:39:03.510Z,1.00
2022-12-25T03:41:58.117Z,0.90
2022-12-25T03:44:49.663Z,0.90
2022-12-25T03:47:40.133Z,0.90
2022-12-25T03:50:32.082Z,1.13
2022-12-25T03:53:22.273Z,0.77
2022-12-25T03:56:08.597Z,0.80
2022-12-25T03:58:54.176Z,1.00
2022-12-25T04:01:39.694Z,1.20
2022-12-25T04:04:25.047Z,0.90
2022-12-25T04:07:10.512Z,0.97
2022-12-25T04:09:57.214Z,1.00
2022-12-25T04:12:42.699Z,0.93
2022-12-25T04:15:29.184Z,1.00
2022-12-25T04:18:14.739Z,1.20
2022-12-25T04:21:00.107Z,1.00
2022-12-25T04:23:45.534Z,1.07
2022-12-25T04:26:32.019Z,1.20
2022-12-25T04:29:17.354Z,1.00
2022-12-25T04:32:02.873Z,1.10
2022-12-25T04:34:48.523Z,0.90
2022-12-25T04:37:16.325Z,1.20
2022-12-25T04:39:44.136Z,1.20
2022-12-25T04:42:13.239Z,1.13
2022-12-25T04:44:41.060Z,0.90
2022-12-25T04:47:11.505Z,1.23
2022-12-25T04:49:39.654Z,0.90
2022-12-25T04:52:07.472Z,1.40
2022-12-25T04:54:35.298Z,1.03
2022-12-25T04:57:03.081Z,0.80
2022-12-25T04:59:32.225Z,1.10
2022-12-25T05:02:00.323Z,1.00
2022-12-25T05:04:28.156Z,0.90
2022-12-25T05:06:55.950Z,1.17
2022-12-25T05:09:23.738Z,1.00
2022-12-25T05:11:51.574Z,0.90
2022-12-25T05:14:19.862Z,1.00
2022-12-25T05:16:49.123Z,0.90
2022-12-25T05:19:17.007Z,1.40
2022-12-25T05:21:44.809Z,1.00
2022-12-25T05:24:12.570Z,1.00
2022-12-25T05:26:40.375Z,1.00
2022-12-25T05:29:08.178Z,0.70
2022-12-25T05:31:36.124Z,1.30
2022-12-25T05:34:05.343Z,1.07
2022-12-25T05:36:33.208Z,1.30
2022-12-25T05:39:00.987Z,0.93
2022-12-25T05:41:33.950Z,1.27
2022-12-25T05:44:02.447Z,0.77
2022-12-25T05:46:30.368Z,0.80
2022-12-25T05:48:58.197Z,1.00
2022-12-25T05:51:27.312Z,0.90
2022-12-25T05:53:55.163Z,1.00
2022-12-25T05:56:22.921Z,1.07
2022-12-25T05:58:51.074Z,0.90
2022-12-25T06:01:20.964Z,1.13
2022-12-25T06:03:48.912Z,1.07
2022-12-25T06:06:16.905Z,0.87
2022-12-25T06:08:46.417Z,0.77
2022-12-25T06:11:15.257Z,1.10
2022-12-25T06:13:43.051Z,0.87
2022-12-25T06:16:13.230Z,0.90
2022-12-25T06:18:43.338Z,1.10
2022-12-25T06:21:12.701Z,0.97
2022-12-25T06:23:40.686Z,1.27
2022-12-25T06:26:11.826Z,0.90
2022-12-25T06:28:39.682Z,1.23
2022-12-25T06:31:08.600Z,1.00
2022-12-25T06:33:37.234Z,0.90
2022-12-25T06:36:09.734Z,0.80
2022-12-25T06:38:38.234Z,1.00
2022-12-25T06:41:08.132Z,0.90
2022-12-25T06:43:37.270Z,1.03
2022-12-25T06:46:06.660Z,1.07
2022-12-25T06:48:35.050Z,0.80
2022-12-25T06:51:04.252Z,1.00
2022-12-25T06:53:38.887Z,1.07
2022-12-25T06:56:10.918Z,1.23
2022-12-25T06:58:40.166Z,1.13
2022-12-25T07:01:15.057Z,1.60
2022-12-25T07:03:45.015Z,1.10
2022-12-25T07:06:12.992Z,1.00
2022-12-25T07:08:40.869Z,1.37
2022-12-25T07:11:08.869Z,0.90
2022-12-25T07:13:36.815Z,0.90
2022-12-25T07:16:07.824Z,1.10
2022-12-25T07:18:36.541Z,1.13
2022-12-25T07:21:08.389Z,0.97
2022-12-25T07:23:36.206Z,0.90
2022-12-25T07:26:04.263Z,1.17
2022-12-25T07:28:33.318Z,0.87
2022-12-25T07:31:07.773Z,0.80
2022-12-25T07:33:36.013Z,0.70
2022-12-25T07:36:05.274Z,0.70
2022-12-25T07:38:33.975Z,1.20
2022-12-25T07:41:01.865Z,0.93
2022-12-25T07:43:29.771Z,0.80
2022-12-25T07:45:58.501Z,0.90
2022-12-25T07:48:28.214Z,0.80
2022-12-25T07:51:00.169Z,0.80
2022-12-25T07:53:28.211Z,1.10
2022-12-25T07:55:58.636Z,0.70
2022-12-25T07:58:26.564Z,0.70
2022-12-25T08:00:54.552Z,0.63
2022-12-25T08:03:22.912Z,1.00
2022-12-25T08:05:52.138Z,1.00
2022-12-25T08:08:19.938Z,0.90
2022-12-25T08:10:48.155Z,1.10
2022-12-25T08:13:15.995Z,0.90
2022-12-25T08:15:43.819Z,1.03
2022-12-25T08:18:11.700Z,0.83
2022-12-25T08:20:39.485Z,0.87
2022-12-25T08:23:08.641Z,0.80
2022-12-25T08:25:36.422Z,0.70
2022-12-25T08:28:04.394Z,0.87
2022-12-25T08:30:32.274Z,1.63
2022-12-25T08:33:00.125Z,0.60
2022-12-25T08:35:27.885Z,0.83
2022-12-25T08:37:55.664Z,0.80
2022-12-25T08:40:24.913Z,0.70
2022-12-25T08:42:52.826Z,0.80
2022-12-25T08:45:20.656Z,1.30
2022-12-25T08:47:48.430Z,1.43
2022-12-25T08:50:16.322Z,1.40
2022-12-25T08:52:44.321Z,0.73
2022-12-25T08:55:12.182Z,0.77
2022-12-25T08:57:41.263Z,1.00
2022-12-25T09:00:10.160Z,0.93
2022-12-25T09:02:38.123Z,0.80
2022-12-25T09:05:07.010Z,0.90
2022-12-25T09:07:34.770Z,1.13
2022-12-25T09:10:03.039Z,0.80
2022-12-25T09:12:30.834Z,0.80
2022-12-25T09:15:00.025Z,0.70
2022-12-25T09:17:31.152Z,0.70
2022-12-25T09:19:58.958Z,1.10
2022-12-25T09:22:26.953Z,0.80
2022-12-25T09:24:54.704Z,1.00
2022-12-25T09:27:22.522Z,0.80
2022-12-25T09:29:50.675Z,0.77
2022-12-25T09:32:19.957Z,0.80
2022-12-25T09:34:47.761Z,0.93
2022-12-25T09:37:15.549Z,0.90
2022-12-25T09:39:46.342Z,0.73
2022-12-25T09:42:18.359Z,0.70
2022-12-25T09:44:50.833Z,0.90
2022-12-25T09:47:24.056Z,0.80
2022-12-25T09:50:04.407Z,1.00
2022-12-25T09:52:38.487Z,0.90
2022-12-25T09:55:19.608Z,0.90
2022-12-25T09:57:52.351Z,0.70
2022-12-25T10:00:21.948Z,1.17
2022-12-25T10:03:16.032Z,0.80
2022-12-25T10:06:08.723Z,0.90
2022-12-25T10:09:02.684Z,0.90
2022-12-25T10:11:42.788Z,0.77
2022-12-25T10:14:23.028Z,0.97
2022-12-25T10:17:00.250Z,0.80
2022-12-25T10:19:52.355Z,0.93
2022-12-25T10:22:26.602Z,1.00
2022-12-25T10:24:57.708Z,0.80
2022-12-25T10:27:32.590Z,0.93
2022-12-25T10:30:01.273Z,0.90
2022-12-25T10:32:29.271Z,0.80
2022-12-25T10:34:58.389Z,0.90
2022-12-25T10:37:26.307Z,1.00
2022-12-25T10:39:54.060Z,1.20
2022-12-25T10:42:36.865Z,0.70
2022-12-25T10:45:07.751Z,1.00
2022-12-25T10:47:37.944Z,1.30
2022-12-25T10:50:12.456Z,1.00
2022-12-25T10:52:55.057Z,2.10
2022-12-25T10:55:28.474Z,1.40
2022-12-25T10:57:58.586Z,5.60
2022-12-25T11:00:28.823Z,1.23
2022-12-25T11:02:57.092Z,1.00
2022-12-25T11:05:29.449Z,1.00
2022-12-25T11:08:00.000Z,0.90
2022-12-25T11:10:31.529Z,1.10
2022-12-25T11:13:01.019Z,7.13
2022-12-25T11:15:36.500Z,1.00
2022-12-25T11:18:05.127Z,0.90
2022-12-25T11:20:34.277Z,1.07
2022-12-25T11:23:02.082Z,1.13
2022-12-25T11:25:29.959Z,1.47
2022-12-25T11:28:00.539Z,0.80
2022-12-25T11:30:30.532Z,1.10
2022-12-25T11:33:02.613Z,1.07
2022-12-25T11:35:40.296Z,1.00
2022-12-25T11:38:10.437Z,0.80
2022-12-25T11:40:45.069Z,0.90
2022-12-25T11:43:18.364Z,0.73
2022-12-25T11:45:51.055Z,0.90
2022-12-25T11:48:23.167Z,0.80
2022-12-25T11:50:56.298Z,1.03
2022-12-25T11:53:39.807Z,0.70
2022-12-25T11:56:10.712Z,0.67
2022-12-25T11:58:41.832Z,0.73
2022-12-25T12:01:19.633Z,0.87
2022-12-25T12:03:47.699Z,0.80
2022-12-25T12:06:21.316Z,1.30
2022-12-25T12:08:54.295Z,0.97
2022-12-25T12:11:27.254Z,0.93
2022-12-25T12:14:06.066Z,1.10
2022-12-25T12:16:35.394Z,1.10
2022-12-25T12:19:12.708Z,1.10
2022-12-25T12:21:44.078Z,0.90
2022-12-25T12:24:17.015Z,0.97
2022-12-25T12:26:47.410Z,1.20
2022-12-25T12:29:26.743Z,1.17
2022-12-25T12:31:56.517Z,1.00
2022-12-25T12:34:27.395Z,0.80
2022-12-25T12:37:02.625Z,0.90
2022-12-25T12:39:35.678Z,0.80
2022-12-25T12:42:03.806Z,0.97
2022-12-25T12:44:34.968Z,1.03
2022-12-25T12:47:03.697Z,0.70
2022-12-25T12:49:33.594Z,0.80
2022-12-25T12:52:14.235Z,1.00
2022-12-25T12:54:55.664Z,0.90
2022-12-25T12:57:29.255Z,1.00
2022-12-25T13:00:01.003Z,0.97
2022-12-25T13:03:08.309Z,1.10
2022-12-25T13:05:41.476Z,1.20
2022-12-25T13:08:22.876Z,0.80
2022-12-25T13:10:53.460Z,1.00
2022-12-25T13:13:25.706Z,1.17
2022-12-25T13:15:55.931Z,0.90
2022-12-25T13:18:23.942Z,0.93
2022-12-25T13:20:56.039Z,1.30
2022-12-25T13:23:28.204Z,1.07
2022-12-25T13:25:57.352Z,1.30
2022-12-25T13:28:32.980Z,1.10
2022-12-25T13:31:06.606Z,0.80
2022-12-25T13:33:35.298Z,1.27
2022-12-25T13:36:04.143Z,0.87
2022-12-25T13:38:33.483Z,1.50
2022-12-25T13:41:18.776Z,1.70
2022-12-25T13:43:48.497Z,1.07
2022-12-25T13:46:32.375Z,1.00
2022-12-25T13:49:01.157Z,1.07
2022-12-25T13:51:31.120Z,1.50
2022-12-25T13:54:06.955Z,1.00
2022-12-25T13:56:36.222Z,1.00
2022-12-25T13:59:05.489Z,1.00
2022-12-25T14:01:33.472Z,1.33
2022-12-25T14:04:01.720Z,1.53
2022-12-25T14:06:31.412Z,1.30
2022-12-25T14:09:00.545Z,1.20
2022-12-25T14:11:32.132Z,1.00
2022-12-25T14:14:03.543Z,1.10
2022-12-25T14:16:31.507Z,1.30
2022-12-25T14:19:01.506Z,1.20
2022-12-25T14:21:32.568Z,1.00
2022-12-25T14:24:01.062Z,1.10
2022-12-25T14:26:32.178Z,1.37
2022-12-25T14:29:16.765Z,1.20
2022-12-25T14:31:46.341Z,1.00
2022-12-25T14:34:17.971Z,1.30
2022-12-25T14:36:46.091Z,1.17
2022-12-25T14:39:30.843Z,1.50
2022-12-25T14:42:00.857Z,1.23
2022-12-25T14:44:34.653Z,1.10
2022-12-25T14:47:13.419Z,1.00
2022-12-25T14:49:41.216Z,1.10
2022-12-25T14:52:17.740Z,1.17
2022-12-25T14:54:47.905Z,1.50
2022-12-25T14:57:30.508Z,1.30
2022-12-25T15:00:05.188Z,1.10
2022-12-25T15:02:43.871Z,1.50
2022-12-25T15:05:30.383Z,1.20
2022-12-25T15:08:22.201Z,2.17
2022-12-25T15:11:00.426Z,1.60
2022-12-25T15:13:30.659Z,1.83
2022-12-25T15:16:02.954Z,1.30
2022-12-25T15:18:35.376Z,1.53
2022-12-25T15:21:03.461Z,1.40
2022-12-25T15:23:31.250Z,1.43
2022-12-25T15:25:59.028Z,1.90
2022-12-25T15:28:29.675Z,1.73
2022-12-25T15:30:58.899Z,1.63
2022-12-25T15:33:26.736Z,1.93
2022-12-25T15:35:54.576Z,1.73
2022-12-25T15:38:22.333Z,4.37
2022-12-25T15:40:50.247Z,3.67
2022-12-25T15:43:39.822Z,4.00
2022-12-25T15:46:10.007Z,2.40
2022-12-25T15:48:37.767Z,2.13
2022-12-25T15:51:05.796Z,3.33
2022-12-25T15:53:33.552Z,3.03
2022-12-25T15:56:01.370Z,2.83
2022-12-25T15:58:29.356Z,2.57
2022-12-25T16:00:57.128Z,2.60
2022-12-25T16:03:26.275Z,3.40
2022-12-25T16:05:54.575Z,3.20
2022-12-25T16:08:22.662Z,2.83
2022-12-25T16:10:50.835Z,2.87
2022-12-25T16:13:21.360Z,2.83
2022-12-25T16:15:49.277Z,3.13
2022-12-25T16:18:17.127Z,3.30
2022-12-25T16:20:46.672Z,3.50
2022-12-25T16:23:14.473Z,2.60
2022-12-25T16:25:42.287Z,3.30
2022-12-25T16:28:10.477Z,3.07
2022-12-25T16:30:38.508Z,2.97
2022-12-25T16:33:07.001Z,3.70
2022-12-25T16:35:35.419Z,3.23
2022-12-25T16:38:04.825Z,3.10
2022-12-25T16:40:32.783Z,3.10
2022-12-25T16:43:00.857Z,3.83
2022-12-25T16:45:28.751Z,3.17
2022-12-25T16:47:57.766Z,2.90
2022-12-25T16:50:25.582Z,2.80
2022-12-25T16:52:53.400Z,3.50
2022-12-25T16:55:27.813Z,3.40
2022-12-25T16:57:57.699Z,3.93
2022-12-25T17:00:25.691Z,3.60
2022-12-25T17:02:54.373Z,4.00
2022-12-25T17:05:22.347Z,3.37
2022-12-25T17:07:50.418Z,4.37
2022-12-25T17:10:18.445Z,4.10
2022-12-25T17:12:47.579Z,4.20
2022-12-25T17:15:15.480Z,4.47
2022-12-25T17:17:43.266Z,4.77
2022-12-25T17:20:11.849Z,6.33
2022-12-25T17:22:39.748Z,5.00
2022-12-25T17:25:08.025Z,5.00
2022-12-25T17:27:35.835Z,4.47
2022-12-25T17:30:05.538Z,4.60
2022-12-25T17:32:34.953Z,5.30
2022-12-25T17:35:03.408Z,5.30
2022-12-25T17:37:31.937Z,5.80
2022-12-25T17:39:59.725Z,5.33
2022-12-25T17:42:27.588Z,5.63
2022-12-25T17:44:55.347Z,5.40
2022-12-25T17:47:24.494Z,6.40
2022-12-25T17:49:52.284Z,7.00
2022-12-25T17:52:20.197Z,7.00
2022-12-25T17:54:48.030Z,8.90
2022-12-25T17:57:15.769Z,10.37
2022-12-25T17:59:43.528Z,8.37
2022-12-25T18:02:12.436Z,8.50
2022-12-25T18:04:41.677Z,7.97
2022-12-25T18:07:09.439Z,7.60
2022-12-25T18:09:37.811Z,5.83
2022-12-25T18:12:06.354Z,5.23
2022-12-25T18:14:34.150Z,4.33
2022-12-25T18:17:01.948Z,3.80
2022-12-25T18:19:29.767Z,3.37
2022-12-25T18:21:59.015Z,3.13
2022-12-25T18:24:26.786Z,3.00
2022-12-25T18:26:54.585Z,3.47
2022-12-25T18:29:22.524Z,3.43
2022-12-25T18:31:50.542Z,3.90
2022-12-25T18:34:18.381Z,4.03
2022-12-25T18:36:46.158Z,4.03
2022-12-25T18:39:15.442Z,3.30
2022-12-25T18:41:57.220Z,4.67
2022-12-25T18:44:25.010Z,4.13
2022-12-25T18:46:52.801Z,4.93
2022-12-25T18:49:20.677Z,4.53
2022-12-25T18:51:49.880Z,5.10
2022-12-25T18:54:19.176Z,4.20
2022-12-25T18:56:52.059Z,4.43
2022-12-25T18:59:21.230Z,4.10
2022-12-25T19:01:49.173Z,4.00
2022-12-25T19:04:17.283Z,4.13
2022-12-25T19:06:45.163Z,3.57
2022-12-25T19:09:13.003Z,2.47
2022-12-25T19:11:46.615Z,3.00
2022-12-25T19:14:15.001Z,2.80
2022-12-25T19:16:42.816Z,3.00
2022-12-25T19:19:10.657Z,2.63
2022-12-25T19:21:38.558Z,2.80
2022-12-25T19:24:07.218Z,1.97
2022-12-25T19:26:35.786Z,2.60
2022-12-25T19:29:04.921Z,2.20
2022-12-25T19:31:32.792Z,2.20
2022-12-25T19:34:00.625Z,3.07
2022-12-25T19:36:28.447Z,2.73
2022-12-25T19:38:56.234Z,2.77
2022-12-25T19:41:24.109Z,2.90
2022-12-25T19:43:52.322Z,2.33
2022-12-25T19:46:24.065Z,2.63
2022-12-25T19:48:53.299Z,2.50
2022-12-25T19:51:23.585Z,3.10
2022-12-25T19:53:51.912Z,2.40
2022-12-25T19:56:20.229Z,2.30
2022-12-25T19:58:48.047Z,2.70
2022-12-25T20:01:17.649Z,2.40
2022-12-25T20:03:46.996Z,2.30
2022-12-25T20:06:18.755Z,2.43
2022-12-25T20:08:47.229Z,1.67
2022-12-25T20:11:15.084Z,2.00
2022-12-25T20:13:42.867Z,2.03
2022-12-25T20:16:11.311Z,1.83
2022-12-25T20:18:39.887Z,1.63
2022-12-25T20:21:13.914Z,1.67
2022-12-25T20:23:42.290Z,1.60
2022-12-25T20:26:11.626Z,1.30
2022-12-25T20:28:41.540Z,2.00
2022-12-25T20:31:11.376Z,1.27
2022-12-25T20:33:39.305Z,1.20
2022-12-25T20:36:10.058Z,1.37
2022-12-25T20:38:37.897Z,1.30
2022-12-25T20:41:26.892Z,1.37
2022-12-25T20:43:56.415Z,1.47
2022-12-25T20:46:24.324Z,1.40
2022-12-25T20:48:52.786Z,1.37
2022-12-25T20:51:24.324Z,1.70
2022-12-25T20:53:52.596Z,1.43
2022-12-25T20:56:22.906Z,1.20
2022-12-25T20:58:55.057Z,1.20
2022-12-25T21:01:22.892Z,1.43
2022-12-25T21:03:57.157Z,1.57
2022-12-25T21:06:26.879Z,1.40
2022-12-25T21:08:54.823Z,1.23
2022-12-25T21:11:22.740Z,1.53
2022-12-25T21:13:50.917Z,1.37
2022-12-25T21:16:21.418Z,1.50
2022-12-25T21:18:50.487Z,1.20
2022-12-25T21:21:18.286Z,1.27
2022-12-25T21:23:47.699Z,1.40
2022-12-25T21:26:19.236Z,1.60
2022-12-25T21:28:47.053Z,1.80
2022-12-25T21:31:14.950Z,1.50
2022-12-25T21:33:54.397Z,1.83
2022-12-25T21:36:26.926Z,1.90
2022-12-25T21:38:58.930Z,2.60
2022-12-25T21:41:27.960Z,2.00
2022-12-25T21:43:56.330Z,1.93
2022-12-25T21:46:24.926Z,1.67
2022-12-25T21:48:53.127Z,1.50
2022-12-25T21:51:41.127Z,1.67
2022-12-25T21:54:11.500Z,2.20
2022-12-25T21:56:44.491Z,1.90
2022-12-25T21:59:15.978Z,1.70
2022-12-25T22:01:44.723Z,1.40
2022-12-25T22:04:13.995Z,1.50
2022-12-25T22:06:59.753Z,1.60
2022-12-25T22:09:28.969Z,2.10
2022-12-25T22:12:10.793Z,2.53
2022-12-25T22:14:57.824Z,2.30
2022-12-25T22:17:45.469Z,2.03
2022-12-25T22:20:16.361Z,2.00
2022-12-25T22:22:46.378Z,1.70
2022-12-25T22:25:16.214Z,1.47
2022-12-25T22:27:45.470Z,1.40
2022-12-25T22:30:15.402Z,1.87
2022-12-25T22:32:43.701Z,1.60
2022-12-25T22:35:13.015Z,1.80
2022-12-25T22:37:42.145Z,1.60
2022-12-25T22:40:14.496Z,1.63
2022-12-25T22:42:43.835Z,1.70
2022-12-25T22:45:12.632Z,1.63
2022-12-25T22:47:41.019Z,1.53
2022-12-25T22:50:09.604Z,1.70
2022-12-25T22:52:37.990Z,1.93
2022-12-25T22:55:07.952Z,1.30
2022-12-25T22:57:35.933Z,1.70
2022-12-25T23:02:40.626Z,1.80
2022-12-25T23:05:09.215Z,1.80
2022-12-25T23:07:37.076Z,1.57
2022-12-25T23:10:06.563Z,1.60
2022-12-25T23:12:51.835Z,1.47
2022-12-25T23:15:19.921Z,1.47
2022-12-25T23:18:06.685Z,1.63
2022-12-25T23:20:52.301Z,1.23
2022-12-25T23:23:37.771Z,1.93
2022-12-25T23:26:08.510Z,1.67
2022-12-25T23:29:05.680Z,1.30
2022-12-25T23:31:36.281Z,1.53
2022-12-25T23:34:06.752Z,1.37
2022-12-25T23:36:35.206Z,1.23
2022-12-25T23:39:09.702Z,1.53
2022-12-25T23:41:38.826Z,1.80
2022-12-25T23:44:07.013Z,1.60
2022-12-25T23:46:35.824Z,1.37
2022-12-25T23:49:05.534Z,1.40
2022-12-25T23:51:33.571Z,1.47
2022-12-25T23:54:01.426Z,1.43
2022-12-25T23:56:29.405Z,1.37
2022-12-25T23:58:57.171Z,1.67
